Time;durP1;ratioP1;P1;durP2;ratioP2;P2;SDS_P1;SDS_P2;PMS_P1;PMS_P2;Temp;Humidity;BMP_temperature;BMP_pressure;BME280_temperature;BME280_humidity;BME280_pressure;Samples;Min_cycle;Max_cycle;Signal;HPM_P1;HPM_P2
2023/03/16 00:00:51;;;;;;;7.85;3.53;;;-0.30;99.90;;;;;;2062377;28;20600;-65
2023/03/16 00:01:57;;;;;;;6.00;3.78;;;-0.30;99.90;;;;;;2061784;28;20206;-62
2023/03/16 00:03:02;;;;;;;7.57;3.72;;;-0.30;99.90;;;;;;2062141;28;20193;-62
2023/03/16 00:04:04;;;;;;;5.78;3.20;;;-0.30;99.90;;;;;;2061734;28;20189;-62
2023/03/16 00:05:11;;;;;;;5.55;3.30;;;-0.30;99.90;;;;;;2052909;28;20221;-64
2023/03/16 00:06:17;;;;;;;5.95;3.50;;;-0.40;99.90;;;;;;2054674;28;20187;-65
2023/03/16 00:07:23;;;;;;;5.38;3.22;;;-0.40;99.90;;;;;;2062220;28;20217;-61
2023/03/16 00:08:29;;;;;;;5.95;3.50;;;-0.30;99.90;;;;;;2060215;28;20194;-62
2023/03/16 00:09:39;;;;;;;7.50;3.25;;;-0.30;99.90;;;;;;2061571;28;20175;-63
2023/03/16 00:10:46;;;;;;;6.53;3.67;;;-0.30;99.90;;;;;;2055710;28;20647;-63
2023/03/16 00:11:52;;;;;;;7.93;3.70;;;-0.30;99.90;;;;;;2054635;28;20585;-62
2023/03/16 00:12:58;;;;;;;5.03;3.40;;;-0.40;99.90;;;;;;2062070;28;20194;-62
2023/03/16 00:14:03;;;;;;;7.82;3.17;;;-0.40;99.90;;;;;;2062196;28;20183;-62
2023/03/16 00:15:05;;;;;;;4.40;3.08;;;-0.40;99.90;;;;;;2062103;28;20195;-63
2023/03/16 00:16:09;;;;;;;7.35;3.40;;;-0.50;99.90;;;;;;2061898;28;20208;-62
2023/03/16 00:17:20;;;;;;;8.82;2.97;;;-0.50;99.90;;;;;;2061556;28;20237;-63
2023/03/16 00:18:28;;;;;;;5.55;3.20;;;-0.40;99.90;;;;;;2061610;28;20198;-62
2023/03/16 00:19:34;;;;;;;3.90;2.55;;;-0.50;99.90;;;;;;2065088;28;20240;-63
2023/03/16 00:20:40;;;;;;;4.95;2.88;;;-0.50;99.90;;;;;;2061472;28;20252;-62
2023/03/16 00:21:46;;;;;;;6.78;3.20;;;-0.50;99.90;;;;;;2060764;28;20217;-62
2023/03/16 00:22:51;;;;;;;6.53;3.08;;;-0.60;99.90;;;;;;2062629;28;20205;-62
2023/03/16 00:23:57;;;;;;;5.07;2.88;;;-0.60;99.90;;;;;;2053310;28;20298;-63
2023/03/16 00:25:04;;;;;;;5.82;3.00;;;-0.60;99.90;;;;;;2054827;28;20205;-62
2023/03/16 00:26:09;;;;;;;4.07;2.63;;;-0.60;99.90;;;;;;2063913;28;20422;-62
2023/03/16 00:27:16;;;;;;;4.65;3.10;;;-0.60;99.90;;;;;;2061554;28;20592;-63
2023/03/16 00:28:22;;;;;;;4.10;2.58;;;-0.60;99.90;;;;;;2061527;28;20612;-63
2023/03/16 00:29:28;;;;;;;6.07;3.80;;;-0.60;99.90;;;;;;2061942;28;20203;-63
2023/03/16 00:30:33;;;;;;;5.28;3.30;;;-0.70;99.90;;;;;;2061883;28;20194;-63
2023/03/16 00:31:44;;;;;;;5.32;3.10;;;-0.60;99.90;;;;;;2061165;28;20190;-63
2023/03/16 00:32:52;;;;;;;5.57;2.75;;;-0.60;99.90;;;;;;2061525;28;20658;-61
2023/03/16 00:33:58;;;;;;;4.78;2.65;;;-0.70;99.90;;;;;;2061818;28;20201;-63
2023/03/16 00:35:04;;;;;;;8.52;3.58;;;-0.60;99.90;;;;;;2062183;28;20210;-63
2023/03/16 00:36:10;;;;;;;6.13;2.83;;;-0.60;99.90;;;;;;2061949;28;20678;-63
2023/03/16 00:37:19;;;;;;;4.25;2.85;;;-0.70;99.90;;;;;;2061355;28;20276;-63
2023/03/16 00:38:25;;;;;;;4.90;2.85;;;-0.60;99.90;;;;;;2061447;28;20201;-68
2023/03/16 00:39:34;;;;;;;4.35;3.05;;;-0.70;99.90;;;;;;2061403;28;20656;-63
2023/03/16 00:40:40;;;;;;;6.05;2.90;;;-0.70;99.90;;;;;;2061679;28;20214;-63
2023/03/16 00:41:45;;;;;;;4.75;2.95;;;-0.60;99.90;;;;;;2061555;28;20202;-62
2023/03/16 00:42:53;;;;;;;5.05;3.00;;;-0.70;99.90;;;;;;2061597;28;20182;-63
2023/03/16 00:44:00;;;;;;;7.28;2.90;;;-0.70;99.90;;;;;;2061407;28;20181;-62
2023/03/16 00:45:05;;;;;;;4.13;3.13;;;-0.60;99.90;;;;;;2061238;28;20277;-63
2023/03/16 00:46:15;;;;;;;4.32;2.85;;;-0.60;99.90;;;;;;2061535;28;20194;-63
2023/03/16 00:47:21;;;;;;;8.52;3.20;;;-0.70;99.90;;;;;;2053141;28;20266;-63
2023/03/16 00:48:27;;;;;;;4.30;2.75;;;-0.80;99.90;;;;;;2054542;28;20194;-63
2023/03/16 00:49:34;;;;;;;5.20;2.95;;;-0.70;99.90;;;;;;2060678;28;20187;-61
2023/03/16 00:50:42;;;;;;;5.18;2.83;;;-0.70;99.90;;;;;;2060803;28;20190;-62
2023/03/16 00:51:47;;;;;;;5.50;2.95;;;-0.80;99.90;;;;;;2061432;28;20202;-63
2023/03/16 00:52:53;;;;;;;5.22;3.05;;;-0.80;99.90;;;;;;2064952;28;20198;-63
2023/03/16 00:53:59;;;;;;;5.13;3.22;;;-0.80;99.90;;;;;;2063410;28;20216;-62
2023/03/16 00:55:04;;;;;;;3.63;2.80;;;-0.80;99.90;;;;;;2065347;28;20645;-63
2023/03/16 00:56:09;;;;;;;4.80;3.10;;;-0.80;99.90;;;;;;2061670;28;20683;-61
2023/03/16 00:57:17;;;;;;;5.60;2.90;;;-0.80;99.90;;;;;;2052820;28;20180;-64
2023/03/16 00:58:23;;;;;;;6.70;3.00;;;-0.80;99.90;;;;;;2047408;28;20223;-62
2023/03/16 00:59:29;;;;;;;4.38;3.15;;;-0.80;99.90;;;;;;2058435;28;20201;-63
2023/03/16 01:00:35;;;;;;;4.22;2.92;;;-0.80;99.90;;;;;;2061932;28;20238;-63
2023/03/16 01:01:41;;;;;;;5.05;2.83;;;-0.80;99.90;;;;;;2060969;28;20667;-62
2023/03/16 01:02:47;;;;;;;5.38;3.00;;;-0.80;99.90;;;;;;2061367;28;20193;-63
2023/03/16 01:03:53;;;;;;;4.65;2.95;;;-0.80;99.90;;;;;;2052609;28;20258;-63
2023/03/16 01:04:59;;;;;;;5.90;3.05;;;-0.90;99.90;;;;;;2057190;28;20232;-62
2023/03/16 01:06:06;;;;;;;5.20;3.10;;;-0.90;99.90;;;;;;2061198;28;20182;-63
2023/03/16 01:07:13;;;;;;;7.38;3.08;;;-0.90;99.90;;;;;;2061367;28;20199;-62
2023/03/16 01:08:18;;;;;;;3.92;2.60;;;-0.90;99.90;;;;;;2052637;28;20644;-63
2023/03/16 01:09:24;;;;;;;4.88;2.90;;;-0.90;99.90;;;;;;2053391;28;20195;-63
2023/03/16 01:10:30;;;;;;;4.57;2.80;;;-0.80;99.90;;;;;;2052554;28;20183;-63
2023/03/16 01:11:35;;;;;;;4.80;2.67;;;-0.90;99.90;;;;;;2053633;28;20195;-63
2023/03/16 01:12:44;;;;;;;7.55;2.97;;;-0.90;99.90;;;;;;2061183;28;20219;-63
2023/03/16 01:13:53;;;;;;;5.28;2.95;;;-0.90;99.90;;;;;;2062089;28;20268;-63
2023/03/16 01:14:59;;;;;;;4.13;2.92;;;-1.00;99.90;;;;;;2061803;28;20193;-63
2023/03/16 01:16:04;;;;;;;5.75;2.80;;;-1.00;99.90;;;;;;2061413;28;20197;-63
2023/03/16 01:17:09;;;;;;;5.88;2.70;;;-1.00;99.90;;;;;;2061244;28;20225;-63
2023/03/16 01:18:14;;;;;;;6.03;3.47;;;-1.00;99.90;;;;;;2061067;28;20194;-62
2023/03/16 01:19:21;;;;;;;3.33;2.75;;;-1.00;99.90;;;;;;2061612;28;20729;-63
2023/03/16 01:20:27;;;;;;;4.88;2.53;;;-1.00;99.90;;;;;;2061520;28;20215;-63
2023/03/16 01:21:33;;;;;;;5.22;3.15;;;-1.00;99.90;;;;;;2060735;28;20185;-63
2023/03/16 01:22:38;;;;;;;4.40;2.50;;;-1.00;99.90;;;;;;2060512;28;20179;-62
2023/03/16 01:23:44;;;;;;;5.28;2.53;;;-1.00;99.90;;;;;;2061241;28;20264;-63
2023/03/16 01:24:50;;;;;;;4.80;2.78;;;-1.00;99.90;;;;;;2061134;28;20212;-61
2023/03/16 01:25:57;;;;;;;6.80;2.72;;;-1.10;99.90;;;;;;2063809;28;20186;-62
2023/03/16 01:27:04;;;;;;;3.58;2.70;;;-1.10;99.90;;;;;;2061383;28;20179;-63
2023/03/16 01:28:09;;;;;;;4.43;2.80;;;-1.00;99.90;;;;;;2061512;28;20184;-63
2023/03/16 01:29:15;;;;;;;4.32;2.70;;;-1.10;99.90;;;;;;2061828;28;20272;-63
2023/03/16 01:30:21;;;;;;;4.35;2.60;;;-1.10;99.90;;;;;;2061549;28;20200;-63
2023/03/16 01:31:28;;;;;;;3.95;2.53;;;-1.10;99.90;;;;;;2061171;28;20678;-63
2023/03/16 01:32:33;;;;;;;4.93;2.58;;;-1.20;99.90;;;;;;2052610;28;20226;-63
2023/03/16 01:33:40;;;;;;;3.58;2.60;;;-1.20;99.90;;;;;;2053283;28;20202;-63
2023/03/16 01:34:46;;;;;;;5.32;2.22;;;-1.10;99.90;;;;;;2061201;28;20245;-63
2023/03/16 01:35:54;;;;;;;3.25;2.40;;;-1.20;99.90;;;;;;2061475;28;20278;-63
2023/03/16 01:37:00;;;;;;;5.70;2.50;;;-1.20;99.90;;;;;;2061610;28;20282;-63
2023/03/16 01:38:03;;;;;;;5.53;2.75;;;-1.20;99.90;;;;;;2052311;28;20655;-66
2023/03/16 01:39:10;;;;;;;3.50;2.72;;;-1.30;99.90;;;;;;2053313;28;20210;-63
2023/03/16 01:40:16;;;;;;;5.78;3.05;;;-1.20;99.90;;;;;;2061011;28;20241;-61
2023/03/16 01:41:22;;;;;;;3.30;2.60;;;-1.30;99.90;;;;;;2061230;28;20187;-62
2023/03/16 01:42:28;;;;;;;4.70;2.35;;;-1.30;99.90;;;;;;2061453;28;20197;-63
2023/03/16 01:43:37;;;;;;;4.13;2.75;;;-1.30;99.90;;;;;;2061278;28;20198;-63
2023/03/16 01:44:56;;;;;;;5.03;2.67;;;-1.30;99.90;;;;;;2060964;28;20190;-63
2023/03/16 01:46:05;;;;;;;4.93;2.92;;;-1.20;99.90;;;;;;2060804;28;20720;-63
2023/03/16 01:47:09;;;;;;;4.43;2.80;;;-1.20;99.90;;;;;;2060698;28;20196;-63
2023/03/16 01:48:14;;;;;;;4.25;2.55;;;-1.20;99.90;;;;;;2061113;28;20194;-63
2023/03/16 01:49:28;;;;;;;3.30;2.47;;;-1.20;99.90;;;;;;2053094;28;20265;-62
2023/03/16 01:50:34;;;;;;;4.78;2.40;;;-1.20;99.90;;;;;;2055230;28;20314;-63
2023/03/16 01:51:53;;;;;;;4.55;2.53;;;-1.20;99.90;;;;;;2060778;28;20324;-62
2023/03/16 01:52:58;;;;;;;4.43;2.70;;;-1.20;99.90;;;;;;2061315;28;20262;-62
2023/03/16 01:54:27;;;;;;;4.78;2.60;;;-1.20;99.90;;;;;;2060656;28;20682;-61
2023/03/16 01:55:33;;;;;;;4.45;2.45;;;-1.20;99.90;;;;;;2060062;28;20196;-61
2023/03/16 01:57:09;;;;;;;4.93;3.13;;;-1.30;99.90;;;;;;2052240;28;20202;-63
2023/03/16 01:58:15;;;;;;;4.70;2.60;;;-1.30;99.90;;;;;;2061375;28;20677;-63
2023/03/16 01:59:27;;;;;;;4.45;2.50;;;-1.20;99.90;;;;;;2061469;28;20222;-63
2023/03/16 02:00:33;;;;;;;3.65;2.15;;;-1.20;99.90;;;;;;2052645;28;20211;-63
2023/03/16 02:01:38;;;;;;;4.53;2.83;;;-1.30;99.90;;;;;;2053802;28;20187;-63
2023/03/16 02:02:51;;;;;;;7.90;2.70;;;-1.30;99.90;;;;;;2060813;28;20191;-63
2023/03/16 02:04:12;;;;;;;6.70;2.67;;;-1.30;99.90;;;;;;2063187;28;20696;-63
2023/03/16 02:05:32;;;;;;;4.28;2.25;;;-1.30;99.90;;;;;;2052219;28;20197;-63
2023/03/16 02:06:39;;;;;;;4.38;2.67;;;-1.30;99.90;;;;;;2048085;28;20191;-63
2023/03/16 02:07:48;;;;;;;6.20;2.65;;;-1.30;99.90;;;;;;2057887;28;20208;-63
2023/03/16 02:08:55;;;;;;;5.30;2.60;;;-1.30;99.90;;;;;;2061032;28;20177;-63
2023/03/16 02:10:05;;;;;;;2.85;2.17;;;-1.30;99.90;;;;;;2052085;28;20939;-63
2023/03/16 02:11:09;;;;;;;4.45;2.92;;;-1.30;99.90;;;;;;2045571;29;20184;-63
2023/03/16 02:12:17;;;;;;;4.57;2.72;;;-1.30;99.90;;;;;;2045720;28;20219;-62
2023/03/16 02:13:24;;;;;;;3.05;2.22;;;-1.30;99.90;;;;;;2046293;28;20180;-62
2023/03/16 02:14:30;;;;;;;3.47;2.55;;;-1.30;99.90;;;;;;2046020;28;20198;-62
2023/03/16 02:15:37;;;;;;;4.65;2.30;;;-1.30;99.90;;;;;;2053615;28;20186;-62
2023/03/16 02:16:43;;;;;;;3.88;2.40;;;-1.30;99.90;;;;;;2060501;28;20191;-62
2023/03/16 02:17:50;;;;;;;4.43;2.75;;;-1.30;99.90;;;;;;2052363;28;20186;-62
2023/03/16 02:18:57;;;;;;;6.53;2.47;;;-1.40;99.90;;;;;;2045279;28;20231;-61
2023/03/16 02:20:47;;;;;;;2.83;2.10;;;-1.30;99.90;;;;;;2053964;28;20191;-62
2023/03/16 02:22:06;;;;;;;4.18;2.40;;;-1.40;99.90;;;;;;2052306;28;20215;-62
2023/03/16 02:23:19;;;;;;;3.13;2.10;;;-1.40;99.90;;;;;;2054926;28;20553;-61
2023/03/16 02:24:25;;;;;;;5.47;2.58;;;-1.40;99.90;;;;;;2060627;28;20189;-62
2023/03/16 02:26:12;;;;;;;4.53;2.47;;;-1.50;99.90;;;;;;2060487;28;20671;-61
2023/03/16 02:27:43;;;;;;;3.72;2.30;;;-1.50;99.90;;;;;;2050775;28;20259;-62
2023/03/16 02:29:04;;;;;;;2.85;1.98;;;-1.50;99.90;;;;;;2032007;29;20224;-62
2023/03/16 02:30:14;;;;;;;5.10;2.22;;;-1.50;99.90;;;;;;2062535;28;20185;-62
2023/03/16 02:31:21;;;;;;;3.40;2.35;;;-1.50;99.90;;;;;;2057096;28;20281;-61
2023/03/16 02:32:29;;;;;;;5.25;2.53;;;-1.50;99.90;;;;;;2052438;28;20190;-62
2023/03/16 02:33:35;;;;;;;6.10;2.55;;;-1.50;99.90;;;;;;2046241;28;20660;-63
2023/03/16 02:34:41;;;;;;;2.80;2.10;;;-1.50;99.90;;;;;;2050406;28;20179;-63
2023/03/16 02:35:47;;;;;;;4.88;3.15;;;-1.50;99.90;;;;;;2062576;28;20221;-63
2023/03/16 02:36:54;;;;;;;6.72;3.50;;;-1.50;99.90;;;;;;2060707;28;20175;-63
2023/03/16 02:38:00;;;;;;;5.00;3.08;;;-1.50;99.90;;;;;;2052855;28;20216;-63
2023/03/16 02:39:04;;;;;;;4.15;2.72;;;-1.50;99.90;;;;;;2053483;28;20188;-63
2023/03/16 02:40:21;;;;;;;4.07;2.70;;;-1.50;99.90;;;;;;2060948;28;20716;-62
2023/03/16 02:41:27;;;;;;;4.57;2.92;;;-1.50;99.90;;;;;;2060114;28;20181;-62
2023/03/16 02:42:32;;;;;;;7.78;3.55;;;-1.50;99.90;;;;;;2060543;28;20609;-63
2023/03/16 02:43:43;;;;;;;5.93;3.42;;;-1.50;99.90;;;;;;2063398;28;20192;-62
2023/03/16 02:44:57;;;;;;;6.35;3.78;;;-1.50;99.90;;;;;;2060480;28;20186;-63
2023/03/16 02:46:03;;;;;;;6.53;2.95;;;-1.60;99.90;;;;;;2060294;28;20189;-63
2023/03/16 02:47:22;;;;;;;6.65;3.55;;;-1.50;99.90;;;;;;2051804;28;20194;-63
2023/03/16 02:48:34;;;;;;;6.68;3.80;;;-1.60;99.90;;;;;;2046857;28;20183;-63
2023/03/16 02:49:43;;;;;;;5.22;3.17;;;-1.60;99.90;;;;;;2046914;28;20191;-61
2023/03/16 02:50:52;;;;;;;4.85;2.70;;;-1.60;99.90;;;;;;2056450;28;20183;-63
2023/03/16 02:51:58;;;;;;;6.43;3.15;;;-1.60;99.90;;;;;;2055154;28;20668;-62
2023/03/16 02:53:04;;;;;;;5.28;2.85;;;-1.60;99.90;;;;;;2055945;28;20199;-63
2023/03/16 02:54:09;;;;;;;3.67;2.80;;;-1.60;99.90;;;;;;2061111;28;20728;-62
2023/03/16 02:55:15;;;;;;;7.05;2.90;;;-1.60;99.90;;;;;;2060614;28;20239;-62
2023/03/16 02:56:21;;;;;;;3.78;2.63;;;-1.60;99.90;;;;;;2063310;28;20181;-63
2023/03/16 02:57:27;;;;;;;6.40;3.28;;;-1.60;99.90;;;;;;2061259;28;20220;-62
2023/03/16 02:58:33;;;;;;;4.60;3.10;;;-1.60;99.90;;;;;;2060765;28;20201;-62
2023/03/16 02:59:38;;;;;;;9.40;3.40;;;-1.60;99.90;;;;;;2060755;28;20278;-62
2023/03/16 03:00:44;;;;;;;5.20;3.15;;;-1.70;99.90;;;;;;2060230;28;20270;-63
2023/03/16 03:01:50;;;;;;;6.85;3.53;;;-1.60;99.90;;;;;;2061050;28;20213;-63
2023/03/16 03:02:56;;;;;;;11.20;4.03;;;-1.70;99.90;;;;;;2060728;28;20566;-62
2023/03/16 03:04:04;;;;;;;6.43;3.75;;;-1.70;99.90;;;;;;2061027;28;20189;-63
2023/03/16 03:05:09;;;;;;;6.35;3.92;;;-1.60;99.90;;;;;;2060516;28;20250;-63
2023/03/16 03:06:10;;;;;;;6.63;3.73;;;-1.60;99.90;;;;;;2060379;28;20193;-65
2023/03/16 03:07:15;;;;;;;9.32;4.32;;;-1.70;99.90;;;;;;2060448;28;20320;-62
2023/03/16 03:08:22;;;;;;;9.35;4.38;;;-1.60;99.90;;;;;;2061013;28;20178;-62
2023/03/16 03:09:28;;;;;;;7.50;4.20;;;-1.60;99.90;;;;;;2061019;28;20191;-62
2023/03/16 03:10:33;;;;;;;7.55;3.83;;;-1.60;99.90;;;;;;2060805;28;20728;-63
2023/03/16 03:11:39;;;;;;;9.27;4.03;;;-1.60;99.90;;;;;;2060022;28;20280;-62
2023/03/16 03:12:48;;;;;;;7.90;3.60;;;-1.60;99.90;;;;;;2060326;28;20278;-62
2023/03/16 03:13:54;;;;;;;9.70;3.50;;;-1.60;99.90;;;;;;2060599;28;20193;-62
2023/03/16 03:15:00;;;;;;;3.33;2.33;;;-1.60;99.90;;;;;;2060876;28;20276;-61
2023/03/16 03:16:05;;;;;;;9.45;3.78;;;-1.60;99.90;;;;;;2061000;28;20194;-64
2023/03/16 03:17:12;;;;;;;7.70;3.97;;;-1.50;99.90;;;;;;2060680;28;20197;-59
2023/03/16 03:18:17;;;;;;;6.20;3.70;;;-1.60;99.90;;;;;;2060341;28;20197;-61
2023/03/16 03:19:23;;;;;;;3.45;2.63;;;-1.60;99.90;;;;;;2060395;28;20244;-61
2023/03/16 03:20:29;;;;;;;9.98;3.42;;;-1.70;99.90;;;;;;2059698;28;20301;-59
2023/03/16 03:21:35;;;;;;;8.10;4.10;;;-1.70;99.90;;;;;;2059477;28;20229;-61
2023/03/16 03:22:43;;;;;;;8.20;3.85;;;-1.70;99.90;;;;;;2060385;28;20190;-62
2023/03/16 03:23:49;;;;;;;5.65;2.75;;;-1.70;99.90;;;;;;2060203;28;20187;-62
2023/03/16 03:24:55;;;;;;;7.03;3.30;;;-1.70;99.90;;;;;;2051733;28;20209;-61
2023/03/16 03:26:03;;;;;;;5.55;2.95;;;-1.70;99.90;;;;;;2053353;28;20255;-61
2023/03/16 03:27:04;;;;;;;5.93;2.78;;;-1.60;99.90;;;;;;2060351;28;20196;-62
2023/03/16 03:28:09;;;;;;;4.82;2.65;;;-1.60;99.90;;;;;;2060241;28;20189;-63
2023/03/16 03:29:09;;;;;;;5.63;2.97;;;-1.60;99.90;;;;;;2060092;28;20218;-63
2023/03/16 03:30:21;;;;;;;4.75;2.70;;;-1.60;99.90;;;;;;2060442;28;20660;-62
2023/03/16 03:31:26;;;;;;;7.47;3.45;;;-1.60;99.90;;;;;;2060322;28;20705;-62
2023/03/16 03:32:32;;;;;;;5.07;2.80;;;-1.60;99.90;;;;;;2061018;28;20241;-62
2023/03/16 03:33:38;;;;;;;6.32;3.00;;;-1.60;99.90;;;;;;2060176;28;20228;-62
2023/03/16 03:34:44;;;;;;;6.22;2.75;;;-1.60;99.90;;;;;;2060189;28;20568;-62
2023/03/16 03:35:55;;;;;;;4.25;2.60;;;-1.50;99.90;;;;;;2060185;28;20202;-62
2023/03/16 03:37:01;;;;;;;4.53;2.85;;;-1.60;99.90;;;;;;2060228;28;20190;-62
2023/03/16 03:38:04;;;;;;;3.53;2.70;;;-1.60;99.90;;;;;;2060124;28;20183;-62
2023/03/16 03:39:04;;;;;;;5.13;2.93;;;-1.60;99.90;;;;;;2060299;28;20195;-64
2023/03/16 03:40:12;;;;;;;4.18;2.72;;;-1.60;99.90;;;;;;2060534;28;20201;-62
2023/03/16 03:41:18;;;;;;;5.57;2.42;;;-1.60;99.90;;;;;;2060595;28;20198;-62
2023/03/16 03:42:24;;;;;;;3.65;2.58;;;-1.70;99.90;;;;;;2060663;28;20190;-61
2023/03/16 03:43:30;;;;;;;4.90;2.45;;;-1.60;99.90;;;;;;2060305;28;20195;-61
2023/03/16 03:44:36;;;;;;;4.10;2.55;;;-1.70;99.90;;;;;;2060179;28;20711;-62
2023/03/16 03:45:41;;;;;;;4.70;2.00;;;-1.70;99.90;;;;;;2059485;28;20725;-62
2023/03/16 03:46:48;;;;;;;2.90;2.20;;;-1.70;99.90;;;;;;2062847;28;20318;-61
2023/03/16 03:47:54;;;;;;;3.88;2.47;;;-1.70;99.90;;;;;;2055180;28;20269;-62
2023/03/16 03:49:03;;;;;;;5.50;2.22;;;-1.70;99.90;;;;;;2053700;28;20186;-62
2023/03/16 03:50:05;;;;;;;2.33;2.00;;;-1.70;99.90;;;;;;2060636;28;20187;-63
2023/03/16 03:51:09;;;;;;;2.50;2.10;;;-1.70;99.90;;;;;;2060595;28;20187;-63
2023/03/16 03:52:14;;;;;;;3.42;2.28;;;-1.70;99.90;;;;;;2060101;28;20221;-63
2023/03/16 03:53:20;;;;;;;4.20;2.38;;;-1.70;99.90;;;;;;2060316;28;20182;-63
2023/03/16 03:54:26;;;;;;;3.42;2.47;;;-1.70;99.90;;;;;;2060040;28;20218;-63
2023/03/16 03:55:32;;;;;;;5.32;2.83;;;-1.70;99.90;;;;;;2060357;28;20678;-62
2023/03/16 03:56:37;;;;;;;5.38;2.60;;;-1.80;99.90;;;;;;2060674;28;20198;-62
2023/03/16 03:57:43;;;;;;;8.20;3.80;;;-1.80;99.90;;;;;;2062080;28;20204;-63
2023/03/16 03:58:49;;;;;;;7.57;3.60;;;-1.70;99.90;;;;;;2061849;28;20206;-63
2023/03/16 03:59:55;;;;;;;7.18;3.60;;;-1.80;99.90;;;;;;2061544;28;20680;-63
2023/03/16 04:01:01;;;;;;;5.60;3.00;;;-1.80;99.90;;;;;;2060363;28;20268;-63
2023/03/16 04:02:04;;;;;;;11.07;3.88;;;-1.80;99.90;;;;;;2060996;28;20210;-63
2023/03/16 04:03:09;;;;;;;7.43;3.55;;;-1.80;99.90;;;;;;2064487;28;20185;-63
2023/03/16 04:04:15;;;;;;;6.40;3.67;;;-1.90;99.90;;;;;;2061619;28;20196;-63
2023/03/16 04:05:21;;;;;;;7.00;3.13;;;-1.80;99.90;;;;;;2061950;28;20565;-63
2023/03/16 04:06:27;;;;;;;7.13;3.00;;;-1.80;99.90;;;;;;2062009;28;20568;-63
2023/03/16 04:07:33;;;;;;;5.55;3.22;;;-1.90;99.90;;;;;;2062285;28;20193;-63
2023/03/16 04:08:39;;;;;;;4.68;2.40;;;-1.90;99.90;;;;;;2061626;28;20190;-63
2023/03/16 04:09:45;;;;;;;5.43;3.20;;;-1.90;99.90;;;;;;2061736;28;20198;-63
2023/03/16 04:10:50;;;;;;;5.57;2.75;;;-1.90;99.90;;;;;;2061603;28;20183;-63
2023/03/16 04:11:56;;;;;;;5.60;2.88;;;-1.90;99.90;;;;;;2062078;28;20209;-63
2023/03/16 04:13:02;;;;;;;6.07;3.25;;;-1.80;99.90;;;;;;2062008;28;20230;-63
2023/03/16 04:14:04;;;;;;;7.82;3.72;;;-1.90;99.90;;;;;;2062070;28;20680;-63
2023/03/16 04:15:11;;;;;;;7.18;2.90;;;-1.80;99.90;;;;;;2061698;28;20202;-63
2023/03/16 04:16:17;;;;;;;6.28;3.40;;;-1.80;99.90;;;;;;2061639;28;20186;-63
2023/03/16 04:17:22;;;;;;;5.00;2.70;;;-1.80;99.90;;;;;;2061431;28;20228;-63
2023/03/16 04:18:37;;;;;;;5.90;2.90;;;-1.80;99.90;;;;;;2061947;28;20194;-63
2023/03/16 04:19:43;;;;;;;5.40;2.90;;;-1.80;99.90;;;;;;2062215;28;20208;-62
2023/03/16 04:20:48;;;;;;;5.97;3.13;;;-1.80;99.90;;;;;;2061607;28;20289;-63
2023/03/16 04:21:54;;;;;;;5.82;3.63;;;-1.80;99.90;;;;;;2061393;28;20217;-63
2023/03/16 04:23:00;;;;;;;4.93;3.05;;;-1.80;99.90;;;;;;2061404;28;20834;-62
2023/03/16 04:24:05;;;;;;;3.58;2.45;;;-1.80;99.90;;;;;;2061786;28;20206;-62
2023/03/16 04:25:11;;;;;;;6.97;3.30;;;-1.80;99.90;;;;;;2061829;28;20198;-62
2023/03/16 04:26:16;;;;;;;5.38;3.08;;;-1.80;99.90;;;;;;2062039;28;20190;-61
2023/03/16 04:27:22;;;;;;;6.13;2.75;;;-1.80;99.90;;;;;;2061975;28;20192;-62
2023/03/16 04:28:28;;;;;;;6.03;2.97;;;-1.80;99.90;;;;;;2061986;28;20218;-62
2023/03/16 04:29:33;;;;;;;7.70;3.92;;;-1.90;99.90;;;;;;2061777;28;20670;-62
2023/03/16 04:30:41;;;;;;;6.22;3.15;;;-1.90;99.90;;;;;;2061475;28;20202;-63
2023/03/16 04:31:47;;;;;;;6.68;3.58;;;-1.90;99.90;;;;;;2061112;28;20285;-60
2023/03/16 04:32:53;;;;;;;3.38;2.40;;;-1.80;99.90;;;;;;2061541;28;20190;-61
2023/03/16 04:33:58;;;;;;;5.05;3.00;;;-1.90;99.90;;;;;;2064626;28;20186;-62
2023/03/16 04:35:04;;;;;;;6.47;3.17;;;-1.80;99.90;;;;;;2061514;28;20205;-62
2023/03/16 04:36:09;;;;;;;4.82;3.13;;;-1.90;99.90;;;;;;2061371;28;20632;-60
2023/03/16 04:37:15;;;;;;;6.22;2.75;;;-1.90;99.90;;;;;;2062431;28;20223;-62
2023/03/16 04:38:21;;;;;;;4.85;2.90;;;-1.90;99.90;;;;;;2061988;28;20802;-63
2023/03/16 04:39:26;;;;;;;5.25;3.13;;;-1.90;99.90;;;;;;2061791;28;20200;-63
2023/03/16 04:40:32;;;;;;;6.70;3.03;;;-1.80;99.90;;;;;;2061316;28;20313;-63
2023/03/16 04:41:38;;;;;;;4.07;2.72;;;-1.80;99.90;;;;;;2061138;28;20188;-63
2023/03/16 04:42:45;;;;;;;4.63;2.72;;;-1.80;99.90;;;;;;2061320;28;20195;-63
2023/03/16 04:43:51;;;;;;;7.10;3.10;;;-1.80;99.90;;;;;;2061312;28;20174;-63
2023/03/16 04:44:56;;;;;;;7.88;2.97;;;-1.80;99.90;;;;;;2061323;28;20194;-61
2023/03/16 04:46:03;;;;;;;4.07;2.58;;;-1.70;99.90;;;;;;2061357;28;20178;-63
2023/03/16 04:47:04;;;;;;;5.07;2.50;;;-1.70;99.90;;;;;;2061755;28;20182;-63
2023/03/16 04:48:09;;;;;;;8.05;3.10;;;-1.80;99.90;;;;;;2061727;28;20835;-63
2023/03/16 04:49:14;;;;;;;5.47;3.33;;;-1.80;99.90;;;;;;2064416;28;20191;-62
2023/03/16 04:50:21;;;;;;;5.75;3.05;;;-1.80;99.90;;;;;;2066333;28;20208;-62
2023/03/16 04:51:27;;;;;;;5.10;3.00;;;-1.90;99.90;;;;;;2064154;28;20204;-63
2023/03/16 04:52:33;;;;;;;4.50;3.00;;;-1.80;99.90;;;;;;2061696;28;20214;-61
2023/03/16 04:53:39;;;;;;;8.63;3.00;;;-1.90;99.90;;;;;;2062012;28;20258;-62
2023/03/16 04:54:44;;;;;;;7.10;4.10;;;-1.80;99.90;;;;;;2061687;28;20943;-63
2023/03/16 04:55:50;;;;;;;5.90;3.38;;;-1.80;99.90;;;;;;2061661;28;20204;-63
2023/03/16 04:56:56;;;;;;;6.03;3.15;;;-1.80;99.90;;;;;;2061274;28;20262;-62
2023/03/16 04:58:01;;;;;;;8.65;5.35;;;-1.80;99.90;;;;;;2061261;28;20198;-62
2023/03/16 04:59:04;;;;;;;8.02;4.15;;;-1.80;99.90;;;;;;2061171;28;20178;-63
2023/03/16 05:00:18;;;;;;;6.28;4.18;;;-1.80;99.90;;;;;;2061993;28;20640;-63
2023/03/16 05:01:23;;;;;;;5.95;3.20;;;-1.50;99.90;;;;;;2061631;28;20640;-63
2023/03/16 05:02:29;;;;;;;5.55;3.17;;;-1.70;99.90;;;;;;2064553;28;20247;-61
2023/03/16 05:03:35;;;;;;;6.47;2.95;;;-1.70;99.90;;;;;;2059932;28;20189;-63
2023/03/16 05:04:41;;;;;;;6.65;3.17;;;-1.70;99.90;;;;;;2061454;28;20225;-63
2023/03/16 05:05:48;;;;;;;8.23;2.88;;;-1.70;99.90;;;;;;2061269;28;20194;-62
2023/03/16 05:06:54;;;;;;;3.03;2.45;;;-1.70;99.90;;;;;;2061170;28;20178;-63
2023/03/16 05:08:00;;;;;;;3.47;2.42;;;-1.60;99.90;;;;;;2061074;28;20203;-63
2023/03/16 05:09:07;;;;;;;3.53;2.38;;;-1.60;99.90;;;;;;2060720;28;20219;-62
2023/03/16 05:10:13;;;;;;;4.07;3.08;;;-1.60;99.90;;;;;;2061772;28;20178;-62
2023/03/16 05:11:18;;;;;;;4.68;2.42;;;-1.60;99.90;;;;;;2061016;28;20187;-63
2023/03/16 05:12:24;;;;;;;4.20;2.20;;;-1.60;99.90;;;;;;2061112;28;20248;-61
2023/03/16 05:13:30;;;;;;;3.67;2.25;;;-1.60;99.90;;;;;;2061228;28;20221;-62
2023/03/16 05:14:35;;;;;;;4.97;2.45;;;-1.60;99.90;;;;;;2061840;28;20208;-62
2023/03/16 05:15:41;;;;;;;6.07;2.92;;;-1.50;99.90;;;;;;2061492;28;20274;-62
2023/03/16 05:16:47;;;;;;;5.28;3.10;;;-1.50;99.90;;;;;;2061727;28;20202;-63
2023/03/16 05:17:57;;;;;;;5.68;2.75;;;-1.50;99.90;;;;;;2061105;28;20237;-62
2023/03/16 05:19:04;;;;;;;7.47;2.50;;;-1.50;99.90;;;;;;2061012;28;20184;-62
2023/03/16 05:20:12;;;;;;;3.50;2.78;;;-1.50;99.90;;;;;;2061149;28;20187;-62
2023/03/16 05:21:17;;;;;;;5.15;2.95;;;-1.50;99.90;;;;;;2061398;28;20244;-62
2023/03/16 05:22:24;;;;;;;6.47;3.13;;;-1.50;99.90;;;;;;2064775;28;20202;-61
2023/03/16 05:23:30;;;;;;;5.82;4.13;;;-1.60;99.90;;;;;;2060901;28;20651;-62
2023/03/16 05:24:36;;;;;;;5.95;3.67;;;-1.60;99.90;;;;;;2063187;28;20260;-62
2023/03/16 05:25:42;;;;;;;6.25;3.78;;;-1.50;99.90;;;;;;2061391;28;20185;-62
2023/03/16 05:26:48;;;;;;;7.88;4.28;;;-1.60;99.90;;;;;;2061094;28;20216;-62
2023/03/16 05:27:53;;;;;;;9.75;4.28;;;-1.60;99.90;;;;;;2060880;28;20193;-62
2023/03/16 05:29:00;;;;;;;8.02;3.95;;;-1.70;99.90;;;;;;2061129;28;20186;-61
2023/03/16 05:30:04;;;;;;;7.57;4.00;;;-1.70;99.90;;;;;;2061540;28;20193;-62
2023/03/16 05:31:10;;;;;;;9.05;4.95;;;-1.80;99.90;;;;;;2061490;28;20222;-62
2023/03/16 05:32:16;;;;;;;11.98;6.07;;;-1.80;99.90;;;;;;2061306;28;20224;-62
2023/03/16 05:33:22;;;;;;;9.18;5.30;;;-1.80;99.90;;;;;;2061049;28;20200;-62
2023/03/16 05:34:27;;;;;;;10.07;4.20;;;-1.80;99.90;;;;;;2060933;28;20281;-62
2023/03/16 05:35:34;;;;;;;7.70;5.30;;;-1.80;99.90;;;;;;2061090;28;20590;-62
2023/03/16 05:36:39;;;;;;;12.40;5.05;;;-1.80;99.90;;;;;;2061006;28;20185;-62
2023/03/16 05:37:45;;;;;;;7.78;5.28;;;-1.80;99.90;;;;;;2060729;28;20190;-62
2023/03/16 05:38:51;;;;;;;7.70;5.18;;;-1.80;99.90;;;;;;2060793;28;20214;-62
2023/03/16 05:39:57;;;;;;;5.47;4.35;;;-1.80;99.90;;;;;;2061219;28;20187;-61
2023/03/16 05:41:04;;;;;;;6.78;4.82;;;-1.80;99.90;;;;;;2061371;28;20190;-62
2023/03/16 05:42:04;;;;;;;8.80;5.97;;;-1.80;99.90;;;;;;2060992;28;20217;-62
2023/03/16 05:43:09;;;;;;;7.80;5.43;;;-1.80;99.90;;;;;;2060806;28;20723;-62
2023/03/16 05:44:15;;;;;;;9.27;6.07;;;-1.80;99.90;;;;;;2060902;28;20197;-62
2023/03/16 05:45:22;;;;;;;11.68;6.55;;;-1.90;99.90;;;;;;2061999;28;20202;-62
2023/03/16 05:46:28;;;;;;;11.48;6.40;;;-1.80;99.90;;;;;;2064788;28;20202;-63
2023/03/16 05:47:36;;;;;;;9.27;6.15;;;-1.80;99.90;;;;;;2063748;28;20560;-62
2023/03/16 05:48:41;;;;;;;10.93;5.95;;;-1.80;99.90;;;;;;2064751;28;20186;-62